TPA weather

Tampa International Airport
Tampa, Florida, United States

Public forecast

Using degrees Fahrenheit for public forecast. Weather courtesy of forecast.io.

METAR (pilot weather report)

Retrieved 2019/04/19 18:22 UTC (0 seconds ago):

KTPA 191822Z 21022G29KT 3SM -TSRA BR SCT020CB BKN095 OVC120 22/19 A2981 RMK AO2 PK WND 20033/1755 LTG DSNT ALQDS OCNL LTGIC VC W-NE TS VC S-NE MOV NE P0013 T02220194 $

TAF (pilot weather forecast)

Retrieved 2019/04/19 18:36 UTC (0 seconds ago):

TAF KTPA 191735Z 1918/2024 20025G35KT 5SM SHRA VCTS SCT008CB BKN025 OVC050 TEMPO 1918/1920 VRB40G50KT 1SM +TSRA BKN008CB FM192000 23022G30KT P6SM VCSH SCT020 OVC040 TEMPO 1920/1924 3SM SHRA BKN020 FM200300 26012G20KT P6SM SCT025 BKN050 FM201200 28019G26KT P6SM BKN050